Piffard, New York
Current Conditions -  °F | °C
As of 5:54 AM on Sunday 26 Oct 2014 (Local Time) from KDSV Reporting Station
Few Clouds Few Clouds  
Wind Chill: 45°   Ceiling: Unl
Heat Index: 49°   Visibility: 10mi
Dew Point: 35°   Wind: 8mph
Humidity: 59%   Direction: 280°W
Pressure: 29.67"   Gusts: NA
Location:  42.83°N, 77.85°W
Report Text: KDSV 260954Z AUTO 28007KT 260V320 10SM FEW065 09/02 A2967 RMK AO2 SLP056 T00940017
Loading
Personal Weather Stations






























Interactive Weather Map New forecast layout! Learn more

10-Day Weather Forecast

Advertisements
Track Severe Weather on mobile